Cielo Di Monaco — 9HA3501 — position and weather

sailwx.info

Track history (hours):
 
Tides and Currents Weather Stations Pressure Air Temp Water Temp Dewpoint Dewpoint Depression Visibility Wind Speed Wind Dir Waves Ship Positions

Cielo Di Monaco

Last reported at 2017-Oct-28 08:03 UTC. Time now 2017-Nov-24 16:41 UTC.
Position N 32°52' W 124°27'.
Warning: this ship's position is 27 days out of date.

Length 180 m; draft 9.9 m.

Type: Ship. MMSI: 229666000.

Date/timePositionNaut miles runAvg speedWind from/ knotsBaromVisibWave heightAir tempDewpointWater temp
2017-Oct-28 08:03N 32°52' W 124°27'5713.1
2017-Oct-28 03:42N 33°39' W 125°05'212.1
2017-Oct-28 03:30N 33°41' W 125°06'612.2
2017-Oct-28 02:58N 33°47' W 125°11'2912.2
2017-Oct-28 00:34N 34°11' W 125°30'112.2
2017-Oct-28 00:30N 34°12' W 125°31'612.6
2017-Oct-28 00:00N 34°17' W 125°35'1612.2
2017-Oct-27 22:41N 34°31' W 125°46'212.4
2017-Oct-27 22:30N 34°33' W 125°47'612.5
2017-Oct-27 22:00N 34°38' W 125°51'612.5
2017-Oct-27 21:30N 34°43' W 125°55'1612.2
2017-Oct-27 20:12N 34°56' W 126°06'1412.0
2017-Oct-27 19:01N 35°08' W 126°15'012.0
2017-Oct-27 18:59N 35°09' W 126°16'612.6
2017-Oct-27 18:29N 35°14' W 126°20'1312.8
2017-Oct-27 17:28N 35°25' W 126°29'1213.3
2017-Oct-27 16:33N 35°35' W 126°37'612.8
2017-Oct-27 16:04N 35°40' W 126°41'112.8
2017-Oct-27 16:00N 35°41' W 126°42'5712.3
2017-Oct-27 11:24N 36°28' W 127°20'1812.2
2017-Oct-27 09:57N 36°43' W 127°32'612.0
2017-Oct-27 09:30N 36°47' W 127°36'612.0
2017-Oct-27 09:00N 36°53' W 127°39'611.8
2017-Oct-27 08:30N 36°58' W 127°43'611.9
2017-Oct-27 08:00N 37°03' W 127°45'611.7
2017-Oct-27 07:30N 37°09' W 127°48'2911.5
2017-Oct-27 05:02N 37°35' W 128°02'011.9
2017-Oct-27 05:00N 37°35' W 128°02'611.7
2017-Oct-27 04:30N 37°41' W 128°05'611.5
2017-Oct-27 03:59N 37°47' W 128°07'611.7
2017-Oct-27 03:30N 37°52' W 128°09'711.8
2017-Oct-27 02:56N 37°58' W 128°12'512.0
2017-Oct-27 02:30N 38°03' W 128°14'611.9
2017-Oct-27 02:00N 38°09' W 128°16'2412.3
2017-Oct-27 00:02N 38°32' W 128°26'1712.5
2017-Oct-26 22:41N 38°48' W 128°32'412.6
2017-Oct-26 22:22N 38°52' W 128°33'512.3
2017-Oct-26 22:00N 38°56' W 128°35'612.1
2017-Oct-26 21:30N 39°02' W 128°37'  
2017-Oct-24 13:48N 48°31' W 125°01'411.8
2017-Oct-24 13:27N 48°31' W 124°55'511.5
2017-Oct-24 13:00N 48°31' W 124°47'510.9
2017-Oct-24 12:30N 48°29' W 124°39'611.4
2017-Oct-24 12:00N 48°27' W 124°32'611.1
2017-Oct-24 11:31N 48°25' W 124°24'611.6
2017-Oct-24 11:01N 48°23' W 124°16'611.8
2017-Oct-24 10:30N 48°21' W 124°08'1112.3
2017-Oct-24 09:37N 48°17' W 123°52'412.8
2017-Oct-24 09:18N 48°17' W 123°46'513.5
2017-Oct-24 08:57N 48°16' W 123°39'613.1
2017-Oct-24 08:30N 48°16' W 123°30'713.1
2017-Oct-24 08:00N 48°22' W 123°25'5 9.8
2017-Oct-24 07:31N 48°23' W 123°18'611.6
2017-Oct-24 07:00N 48°28' W 123°12'815.7
2017-Oct-24 06:30N 48°35' W 123°14'714.2
2017-Oct-24 06:00N 48°42' W 123°15'714.5
2017-Oct-24 05:30N 48°45' W 123°05'610.0
2017-Oct-24 04:57N 48°51' W 123°03'612.9
2017-Oct-24 04:29N 48°55' W 123°10'612.8
2017-Oct-24 04:00N 48°59' W 123°17'611.9
2017-Oct-24 03:29N 49°04' W 123°22'612.4
2017-Oct-24 03:00N 49°10' W 123°22'612.7
2017-Oct-24 02:30N 49°16' W 123°20'611.3
2017-Oct-24 02:00N 49°19' W 123°13'5 9.4
2017-Oct-24 01:30N 49°18' W 123°06'3 5.4
2017-Oct-24 01:00N 49°18' W 123°02'0 0.0
2017-Oct-24 00:29N 49°18' W 123°02'0 0.0
2017-Oct-23 23:59N 49°18' W 123°02'0 0.0
2017-Oct-23 23:26N 49°18' W 123°02'0 0.0
2017-Oct-23 22:59N 49°18' W 123°02'0 0.0
2017-Oct-23 22:26N 49°18' W 123°02'0 0.0
2017-Oct-23 21:59N 49°18' W 123°02'0 0.0
2017-Oct-23 21:29N 49°18' W 123°02'0 0.0
2017-Oct-23 20:59N 49°18' W 123°02'0 0.0
2017-Oct-23 20:29N 49°18' W 123°02'0 0.0
2017-Oct-23 19:59N 49°18' W 123°02'0 0.0
2017-Oct-23 19:29N 49°18' W 123°02'0 0.0
2017-Oct-23 18:59N 49°18' W 123°02'0 0.0
2017-Oct-23 18:29N 49°18' W 123°02'0 0.0
2017-Oct-23 17:59N 49°18' W 123°02'0 0.0
2017-Oct-23 17:29N 49°18' W 123°02'0 0.0
2017-Oct-23 16:59N 49°18' W 123°02'0 0.0
2017-Oct-23 16:29N 49°18' W 123°02'0 0.0
2017-Oct-23 15:59N 49°18' W 123°02'0 0.0
2017-Oct-23 15:29N 49°18' W 123°02'0 0.0
2017-Oct-23 14:59N 49°18' W 123°02'0 0.0
2017-Oct-23 14:29N 49°18' W 123°02'0 0.0
2017-Oct-23 13:59N 49°18' W 123°02'0 0.0
2017-Oct-23 13:29N 49°18' W 123°02'0 0.0
2017-Oct-23 12:59N 49°18' W 123°02'0 0.0
2017-Oct-23 12:29N 49°18' W 123°02'0 0.0
2017-Oct-23 11:59N 49°18' W 123°02'0 0.0
2017-Oct-23 11:29N 49°18' W 123°02'0 0.0
2017-Oct-23 10:59N 49°18' W 123°02'0 0.0
2017-Oct-23 10:29N 49°18' W 123°02'0 0.0
2017-Oct-23 09:59N 49°18' W 123°02'0 0.0
2017-Oct-23 09:29N 49°18' W 123°02'0 0.0
2017-Oct-23 08:56N 49°18' W 123°02'0 0.0
2017-Oct-23 08:29N 49°18' W 123°02'0 0.0
2017-Oct-23 07:59N 49°18' W 123°02'0 0.0
2017-Oct-23 07:29N 49°18' W 123°02'0 0.0
2017-Oct-23 06:59N 49°18' W 123°02'0 0.0
2017-Oct-23 06:29N 49°18' W 123°02'0 0.0
2017-Oct-23 05:56N 49°18' W 123°02'0 0.0
2017-Oct-23 05:29N 49°18' W 123°02'0 0.0
2017-Oct-23 04:59N 49°18' W 123°02'0 0.0
2017-Oct-23 04:26N 49°18' W 123°02'0 0.0
2017-Oct-23 03:59N 49°18' W 123°02'0 0.0
2017-Oct-23 03:29N 49°18' W 123°02'0 0.0
2017-Oct-23 02:59N 49°18' W 123°02'0 0.0
2017-Oct-23 02:29N 49°18' W 123°02'0 0.0
2017-Oct-23 01:59N 49°18' W 123°02'0 0.0
2017-Oct-23 01:29N 49°18' W 123°02'0 0.0
2017-Oct-23 00:56N 49°18' W 123°02'0 0.0
2017-Oct-23 00:29N 49°18' W 123°02'0 0.0
2017-Oct-22 23:56N 49°18' W 123°02'0 0.0
2017-Oct-22 23:29N 49°18' W 123°02'0 0.0
2017-Oct-22 22:59N 49°18' W 123°02'0 0.0
2017-Oct-22 22:29N 49°18' W 123°02'0 0.0
2017-Oct-22 21:59N 49°18' W 123°02'0 0.0
2017-Oct-22 21:29N 49°18' W 123°02'0 0.0
2017-Oct-22 20:59N 49°18' W 123°02'0 0.0
2017-Oct-22 20:29N 49°18' W 123°02'0 0.0
2017-Oct-22 19:59N 49°18' W 123°02'0 0.0
2017-Oct-22 19:29N 49°18' W 123°02'0 0.0
2017-Oct-22 18:59N 49°18' W 123°02'0 0.0
2017-Oct-22 18:29N 49°18' W 123°02'0 0.0
2017-Oct-22 17:59N 49°18' W 123°02'0 0.0
2017-Oct-22 17:29N 49°18' W 123°02'0 0.0
2017-Oct-22 16:59N 49°18' W 123°02'0 0.0
2017-Oct-22 16:26N 49°18' W 123°02'0 0.0
2017-Oct-22 15:59N 49°18' W 123°02'0 0.0
2017-Oct-22 15:29N 49°18' W 123°02'0 0.0
2017-Oct-22 14:59N 49°18' W 123°02'0 0.0
2017-Oct-22 14:29N 49°18' W 123°02'0 0.0
2017-Oct-22 13:59N 49°18' W 123°02'0 0.0
2017-Oct-22 13:29N 49°18' W 123°02'0 0.0
2017-Oct-22 12:59N 49°18' W 123°02'0 0.0
2017-Oct-22 12:29N 49°18' W 123°02'0 0.0
2017-Oct-22 11:59N 49°18' W 123°02'0 0.0
2017-Oct-22 11:29N 49°18' W 123°02'0 0.0
2017-Oct-22 10:59N 49°18' W 123°02'0 0.0
2017-Oct-22 10:29N 49°18' W 123°02'0 0.0
2017-Oct-22 09:56N 49°18' W 123°02'0 0.0
2017-Oct-22 09:29N 49°18' W 123°02'0 0.0
2017-Oct-22 08:59N 49°18' W 123°02'0 0.0
2017-Oct-22 08:29N 49°18' W 123°02'0 0.0
2017-Oct-22 07:59N 49°18' W 123°02'0 0.0
2017-Oct-22 07:29N 49°18' W 123°02'0 0.0
2017-Oct-22 06:56N 49°18' W 123°02'0 0.0
2017-Oct-22 06:29N 49°18' W 123°02'0 0.0
2017-Oct-22 05:59N 49°18' W 123°02'0 0.0
2017-Oct-22 05:29N 49°18' W 123°02'0 0.0
2017-Oct-22 04:59N 49°18' W 123°02'0 0.0
2017-Oct-22 04:29N 49°18' W 123°02'0 0.0
2017-Oct-22 03:59N 49°18' W 123°02'0 0.0
2017-Oct-22 03:29N 49°18' W 123°02'0 0.0
2017-Oct-22 02:59N 49°18' W 123°02'0 0.0
2017-Oct-22 02:29N 49°18' W 123°02'0 0.0
2017-Oct-22 01:59N 49°18' W 123°02'0 0.0
2017-Oct-22 01:29N 49°18' W 123°02'0 0.0
2017-Oct-22 00:59N 49°18' W 123°02'0 0.0
2017-Oct-22 00:29N 49°18' W 123°02'0 0.0
2017-Oct-21 23:59N 49°18' W 123°02'0 0.0
2017-Oct-21 23:26N 49°18' W 123°02'0 0.0
2017-Oct-21 22:59N 49°18' W 123°02'0 0.0
2017-Oct-21 22:29N 49°18' W 123°02'0 0.0
2017-Oct-21 21:59N 49°18' W 123°02'0 0.0
2017-Oct-21 21:29N 49°18' W 123°02'0 0.0
2017-Oct-21 20:59N 49°18' W 123°02'0 0.0
2017-Oct-21 20:29N 49°18' W 123°02'0 0.0
2017-Oct-21 19:59N 49°18' W 123°02'0 0.0
2017-Oct-21 19:26N 49°18' W 123°02'0 0.0
2017-Oct-21 18:59N 49°18' W 123°02'0 0.0
2017-Oct-21 18:29N 49°18' W 123°02'0 0.0
2017-Oct-21 17:59N 49°18' W 123°02'0 0.0
2017-Oct-21 17:29N 49°18' W 123°02'0 0.0
2017-Oct-21 16:59N 49°18' W 123°02'0 0.0
2017-Oct-21 16:29N 49°18' W 123°02'0 0.0
2017-Oct-21 15:59N 49°18' W 123°02'0 0.0
2017-Oct-21 15:29N 49°18' W 123°02'0 0.0
2017-Oct-21 14:59N 49°18' W 123°02'0 0.0
2017-Oct-21 14:29N 49°18' W 123°02'0 0.0
2017-Oct-21 13:29N 49°18' W 123°02'0 0.0
2017-Oct-21 12:59N 49°18' W 123°02'0 0.0
2017-Oct-21 12:26N 49°18' W 123°02'0 0.0
2017-Oct-21 11:59N 49°18' W 123°02'0 0.0
2017-Oct-21 11:29N 49°18' W 123°02'0 0.0
2017-Oct-21 10:59N 49°18' W 123°02'0 0.0
2017-Oct-21 10:29N 49°18' W 123°02'0 0.0
2017-Oct-21 09:59N 49°18' W 123°02'0 0.0
2017-Oct-21 09:29N 49°18' W 123°02'0 0.0
2017-Oct-21 08:59N 49°18' W 123°02'0 0.0
2017-Oct-21 08:26N 49°18' W 123°02'0 0.0
2017-Oct-21 07:59N 49°18' W 123°02'0 0.0
2017-Oct-21 07:26N 49°18' W 123°02'0 0.0
2017-Oct-21 06:59N 49°18' W 123°02'0 0.0
2017-Oct-21 06:29N 49°18' W 123°02'0 0.0
2017-Oct-21 05:59N 49°18' W 123°02'0 0.0
2017-Oct-21 05:29N 49°18' W 123°02'0 0.0
2017-Oct-21 04:56N 49°18' W 123°02'0 0.0
2017-Oct-21 04:29N 49°18' W 123°02'0 0.0
2017-Oct-21 03:59N 49°18' W 123°02'0 0.0
2017-Oct-21 03:29N 49°18' W 123°02'0 0.0
2017-Oct-21 02:59N 49°18' W 123°02'0 0.0
2017-Oct-21 02:29N 49°18' W 123°02'0 0.0
2017-Oct-21 01:59N 49°18' W 123°02'0 0.0
2017-Oct-21 01:29N 49°18' W 123°02'0 0.0
2017-Oct-21 00:59N 49°18' W 123°02'0 0.0
2017-Oct-21 00:29N 49°18' W 123°02'0 0.0
2017-Oct-20 23:59N 49°18' W 123°02'0 0.0
2017-Oct-20 23:29N 49°18' W 123°02'0 0.0
2017-Oct-20 22:59N 49°18' W 123°02'0 0.0
2017-Oct-20 22:29N 49°18' W 123°02'0 0.0
2017-Oct-20 21:59N 49°18' W 123°02'0 0.0
2017-Oct-20 21:29N 49°18' W 123°02'0 0.0
2017-Oct-20 20:59N 49°18' W 123°02'0 0.0
2017-Oct-20 20:26N 49°18' W 123°02'0 0.0
2017-Oct-20 19:56N 49°18' W 123°02'0 0.0
2017-Oct-20 19:29N 49°18' W 123°02'0 0.0
2017-Oct-20 18:59N 49°18' W 123°02'0 0.0
2017-Oct-20 18:29N 49°18' W 123°02'0 0.0
2017-Oct-20 17:59N 49°18' W 123°02'0 0.0
2017-Oct-20 17:29N 49°18' W 123°02'0 0.0
2017-Oct-20 16:56N 49°18' W 123°02'0 0.0
2017-Oct-20 16:29N 49°18' W 123°02'0 0.0
2017-Oct-20 15:59N 49°18' W 123°02'0 0.0
2017-Oct-20 15:29N 49°18' W 123°02'0 0.0
2017-Oct-20 14:59N 49°18' W 123°02'0 0.0
2017-Oct-20 14:29N 49°18' W 123°02'0 0.0
2017-Oct-20 13:26N 49°18' W 123°02'0 0.0
2017-Oct-20 12:59N 49°18' W 123°02'0 0.0
2017-Oct-20 12:29N 49°18' W 123°02'0 0.0
2017-Oct-20 11:56N 49°18' W 123°02'0 0.0
2017-Oct-20 11:29N 49°18' W 123°02'0 0.0
2017-Oct-20 10:59N 49°18' W 123°02'0 0.0
2017-Oct-20 10:29N 49°18' W 123°02'0 0.0
2017-Oct-20 09:59N 49°18' W 123°02'0 0.0
2017-Oct-20 09:29N 49°18' W 123°02'0 0.0
2017-Oct-20 08:59N 49°18' W 123°02'0 0.0
2017-Oct-20 08:29N 49°18' W 123°02'0 0.0
2017-Oct-20 07:59N 49°18' W 123°02'0 0.0
2017-Oct-20 07:29N 49°18' W 123°02'0 0.0
2017-Oct-20 06:59N 49°18' W 123°02'0 0.0
2017-Oct-20 06:29N 49°18' W 123°02'0 0.0
2017-Oct-20 05:59N 49°18' W 123°02'0 0.0
2017-Oct-20 05:29N 49°18' W 123°02'0 0.0
2017-Oct-20 04:59N 49°18' W 123°02'0 0.0
2017-Oct-20 04:29N 49°18' W 123°02'0 0.0
2017-Oct-20 03:56N 49°18' W 123°02'0 0.0
2017-Oct-20 03:29N 49°18' W 123°02'0 0.0
2017-Oct-20 02:59N 49°18' W 123°02'0 0.0
2017-Oct-20 02:29N 49°18' W 123°02'0 0.0
2017-Oct-20 01:59N 49°18' W 123°02'0 0.0
2017-Oct-20 01:29N 49°18' W 123°02'0 0.0
2017-Oct-20 00:59N 49°18' W 123°02'0 0.0
2017-Oct-20 00:26N 49°18' W 123°02'0 0.0
2017-Oct-19 23:59N 49°18' W 123°02'0 0.0
2017-Oct-19 23:29N 49°18' W 123°02'0 0.0
2017-Oct-19 22:56N 49°18' W 123°02'0 0.0
2017-Oct-19 22:29N 49°18' W 123°02'0 0.0
2017-Oct-19 21:59N 49°18' W 123°02'0 0.0
2017-Oct-19 21:29N 49°18' W 123°02'0 0.0
2017-Oct-19 20:59N 49°18' W 123°02'0 0.0
2017-Oct-19 20:29N 49°18' W 123°02'0 0.0
2017-Oct-19 19:59N 49°18' W 123°02'0 0.0
2017-Oct-19 19:29N 49°18' W 123°02'0 0.0
2017-Oct-19 18:59N 49°18' W 123°02'0 0.0
2017-Oct-19 18:29N 49°18' W 123°02'0 0.0
2017-Oct-19 17:56N 49°18' W 123°02'0 0.0
2017-Oct-19 17:23N 49°18' W 123°02'0 0.0
2017-Oct-19 16:59N 49°18' W 123°02'0 0.0
2017-Oct-19 16:26N 49°18' W 123°02'0 0.0
2017-Oct-19 15:59N 49°18' W 123°02'0 0.0
2017-Oct-19 15:29N 49°18' W 123°02'0 0.0
2017-Oct-19 14:59N 49°18' W 123°02'0 0.0
2017-Oct-19 14:29N 49°18' W 123°02'0 0.0
2017-Oct-19 13:56N 49°18' W 123°02'0 0.1
2017-Oct-19 13:29N 49°18' W 123°02'2 3.2
2017-Oct-19 13:00N 49°18' W 123°04'5 9.7
2017-Oct-19 12:30N 49°19' W 123°12'611.3
2017-Oct-19 12:00N 49°15' W 123°18'713.0
2017-Oct-19 11:30N 49°09' W 123°20'612.8
2017-Oct-19 11:00N 49°02' W 123°18'713.7
2017-Oct-19 10:30N 48°58' W 123°10'713.7
2017-Oct-19 10:00N 48°52' W 123°03'611.8
2017-Oct-19 09:30N 48°47' W 123°02'713.9
2017-Oct-19 09:00N 48°43' W 123°11'510.4
2017-Oct-19 08:30N 48°38' W 123°14'612.8
2017-Oct-19 08:00N 48°32' W 123°11'611.6
2017-Oct-19 07:30N 48°26' W 123°10'713.2
2017-Oct-19 07:00N 48°22' W 123°18'510.7
2017-Oct-19 06:30N 48°19' W 123°25'611.2
2017-Oct-19 06:00N 48°15' W 123°30'510.6
2017-Oct-19 05:30N 48°13' W 123°37'5 9.9
2017-Oct-19 04:57N 48°13' W 123°46'510.3
2017-Oct-19 04:25N 48°14' W 123°54'410.4
2017-Oct-19 04:00N 48°15' W 123°60'511.0
2017-Oct-19 03:30N 48°17' W 124°07'510.7
2017-Oct-19 03:00N 48°20' W 124°15'510.9
2017-Oct-19 02:31N 48°22' W 124°22'510.8
2017-Oct-19 02:00N 48°24' W 124°29'612.2
2017-Oct-19 01:30N 48°27' W 124°38'611.8
2017-Oct-19 01:00N 48°29' W 124°46'510.7
2017-Oct-19 00:30N 48°28' W 124°54'610.1
2017-Oct-18 23:55N 48°25' W 125°02'510.7
2017-Oct-18 23:26N 48°20' W 125°04'13311.7
2017-Oct-18 12:04N 46°08' W 125°21'111.7
2017-Oct-18 11:59N 46°07' W 125°21'611.4
2017-Oct-18 11:30N 46°02' W 125°21'811.1
2017-Oct-18 10:47N 45°54' W 125°21'1111.1
2017-Oct-18 09:48N 45°43' W 125°21'611.7
2017-Oct-18 09:16N 45°37' W 125°21'511.6
2017-Oct-18 08:48N 45°31' W 125°21'611.7
2017-Oct-18 08:18N 45°25' W 125°22'  
Track history (hours):
 
Tides and Currents Weather Stations Pressure Air Temp Water Temp Dewpoint Dewpoint Depression Visibility Wind Speed Wind Dir Waves Ship Positions

Cielo Di Monaco

Last reported at 2017-Oct-28 08:03 UTC. Time now 2017-Nov-24 16:41 UTC.
Position N 32°52' W 124°27'.
Warning: this ship's position is 27 days out of date.

Length 180 m; draft 9.9 m.

Type: Ship. MMSI: 229666000.

Date/timePositionNaut miles runAvg speedWind from/ knotsBaromVisibWave heightAir tempDewpointWater temp
2017-Oct-28 08:03N 32°52' W 124°27'5713.1
2017-Oct-28 03:42N 33°39' W 125°05'212.1
2017-Oct-28 03:30N 33°41' W 125°06'612.2
2017-Oct-28 02:58N 33°47' W 125°11'2912.2
2017-Oct-28 00:34N 34°11' W 125°30'112.2
2017-Oct-28 00:30N 34°12' W 125°31'612.6
2017-Oct-28 00:00N 34°17' W 125°35'1612.2
2017-Oct-27 22:41N 34°31' W 125°46'212.4
2017-Oct-27 22:30N 34°33' W 125°47'612.5
2017-Oct-27 22:00N 34°38' W 125°51'612.5
2017-Oct-27 21:30N 34°43' W 125°55'1612.2
2017-Oct-27 20:12N 34°56' W 126°06'1412.0
2017-Oct-27 19:01N 35°08' W 126°15'012.0
2017-Oct-27 18:59N 35°09' W 126°16'612.6
2017-Oct-27 18:29N 35°14' W 126°20'1312.8
2017-Oct-27 17:28N 35°25' W 126°29'1213.3
2017-Oct-27 16:33N 35°35' W 126°37'612.8
2017-Oct-27 16:04N 35°40' W 126°41'112.8
2017-Oct-27 16:00N 35°41' W 126°42'5712.3
2017-Oct-27 11:24N 36°28' W 127°20'1812.2
2017-Oct-27 09:57N 36°43' W 127°32'612.0
2017-Oct-27 09:30N 36°47' W 127°36'612.0
2017-Oct-27 09:00N 36°53' W 127°39'611.8
2017-Oct-27 08:30N 36°58' W 127°43'611.9
2017-Oct-27 08:00N 37°03' W 127°45'611.7
2017-Oct-27 07:30N 37°09' W 127°48'2911.5
2017-Oct-27 05:02N 37°35' W 128°02'011.9
2017-Oct-27 05:00N 37°35' W 128°02'611.7
2017-Oct-27 04:30N 37°41' W 128°05'611.5
2017-Oct-27 03:59N 37°47' W 128°07'611.7
2017-Oct-27 03:30N 37°52' W 128°09'711.8
2017-Oct-27 02:56N 37°58' W 128°12'512.0
2017-Oct-27 02:30N 38°03' W 128°14'611.9
2017-Oct-27 02:00N 38°09' W 128°16'2412.3
2017-Oct-27 00:02N 38°32' W 128°26'1712.5
2017-Oct-26 22:41N 38°48' W 128°32'412.6
2017-Oct-26 22:22N 38°52' W 128°33'512.3
2017-Oct-26 22:00N 38°56' W 128°35'612.1
2017-Oct-26 21:30N 39°02' W 128°37'  
2017-Oct-24 13:48N 48°31' W 125°01'411.8
2017-Oct-24 13:27N 48°31' W 124°55'511.5
2017-Oct-24 13:00N 48°31' W 124°47'510.9
2017-Oct-24 12:30N 48°29' W 124°39'611.4
2017-Oct-24 12:00N 48°27' W 124°32'611.1
2017-Oct-24 11:31N 48°25' W 124°24'611.6
2017-Oct-24 11:01N 48°23' W 124°16'611.8
2017-Oct-24 10:30N 48°21' W 124°08'1112.3
2017-Oct-24 09:37N 48°17' W 123°52'412.8
2017-Oct-24 09:18N 48°17' W 123°46'513.5
2017-Oct-24 08:57N 48°16' W 123°39'613.1
2017-Oct-24 08:30N 48°16' W 123°30'713.1
2017-Oct-24 08:00N 48°22' W 123°25'5 9.8
2017-Oct-24 07:31N 48°23' W 123°18'611.6
2017-Oct-24 07:00N 48°28' W 123°12'815.7
2017-Oct-24 06:30N 48°35' W 123°14'714.2
2017-Oct-24 06:00N 48°42' W 123°15'714.5
2017-Oct-24 05:30N 48°45' W 123°05'610.0
2017-Oct-24 04:57N 48°51' W 123°03'612.9
2017-Oct-24 04:29N 48°55' W 123°10'612.8
2017-Oct-24 04:00N 48°59' W 123°17'611.9
2017-Oct-24 03:29N 49°04' W 123°22'612.4
2017-Oct-24 03:00N 49°10' W 123°22'612.7
2017-Oct-24 02:30N 49°16' W 123°20'611.3
2017-Oct-24 02:00N 49°19' W 123°13'5 9.4
2017-Oct-24 01:30N 49°18' W 123°06'3 5.4
2017-Oct-24 01:00N 49°18' W 123°02'0 0.0
2017-Oct-24 00:29N 49°18' W 123°02'0 0.0
2017-Oct-23 23:59N 49°18' W 123°02'0 0.0
2017-Oct-23 23:26N 49°18' W 123°02'0 0.0
2017-Oct-23 22:59N 49°18' W 123°02'0 0.0
2017-Oct-23 22:26N 49°18' W 123°02'0 0.0
2017-Oct-23 21:59N 49°18' W 123°02'0 0.0
2017-Oct-23 21:29N 49°18' W 123°02'0 0.0
2017-Oct-23 20:59N 49°18' W 123°02'0 0.0
2017-Oct-23 20:29N 49°18' W 123°02'0 0.0
2017-Oct-23 19:59N 49°18' W 123°02'0 0.0
2017-Oct-23 19:29N 49°18' W 123°02'0 0.0
2017-Oct-23 18:59N 49°18' W 123°02'0 0.0
2017-Oct-23 18:29N 49°18' W 123°02'0 0.0
2017-Oct-23 17:59N 49°18' W 123°02'0 0.0
2017-Oct-23 17:29N 49°18' W 123°02'0 0.0
2017-Oct-23 16:59N 49°18' W 123°02'0 0.0
2017-Oct-23 16:29N 49°18' W 123°02'0 0.0
2017-Oct-23 15:59N 49°18' W 123°02'0 0.0
2017-Oct-23 15:29N 49°18' W 123°02'0 0.0
2017-Oct-23 14:59N 49°18' W 123°02'0 0.0
2017-Oct-23 14:29N 49°18' W 123°02'0 0.0
2017-Oct-23 13:59N 49°18' W 123°02'0 0.0
2017-Oct-23 13:29N 49°18' W 123°02'0 0.0
2017-Oct-23 12:59N 49°18' W 123°02'0 0.0
2017-Oct-23 12:29N 49°18' W 123°02'0 0.0
2017-Oct-23 11:59N 49°18' W 123°02'0 0.0
2017-Oct-23 11:29N 49°18' W 123°02'0 0.0
2017-Oct-23 10:59N 49°18' W 123°02'0 0.0
2017-Oct-23 10:29N 49°18' W 123°02'0 0.0
2017-Oct-23 09:59N 49°18' W 123°02'0 0.0
2017-Oct-23 09:29N 49°18' W 123°02'0 0.0
2017-Oct-23 08:56N 49°18' W 123°02'0 0.0
2017-Oct-23 08:29N 49°18' W 123°02'0 0.0
2017-Oct-23 07:59N 49°18' W 123°02'0 0.0
2017-Oct-23 07:29N 49°18' W 123°02'0 0.0
2017-Oct-23 06:59N 49°18' W 123°02'0 0.0
2017-Oct-23 06:29N 49°18' W 123°02'0 0.0
2017-Oct-23 05:56N 49°18' W 123°02'0 0.0
2017-Oct-23 05:29N 49°18' W 123°02'0 0.0
2017-Oct-23 04:59N 49°18' W 123°02'0 0.0
2017-Oct-23 04:26N 49°18' W 123°02'0 0.0
2017-Oct-23 03:59N 49°18' W 123°02'0 0.0
2017-Oct-23 03:29N 49°18' W 123°02'0 0.0
2017-Oct-23 02:59N 49°18' W 123°02'0 0.0
2017-Oct-23 02:29N 49°18' W 123°02'0 0.0
2017-Oct-23 01:59N 49°18' W 123°02'0 0.0
2017-Oct-23 01:29N 49°18' W 123°02'0 0.0
2017-Oct-23 00:56N 49°18' W 123°02'0 0.0
2017-Oct-23 00:29N 49°18' W 123°02'0 0.0
2017-Oct-22 23:56N 49°18' W 123°02'0 0.0
2017-Oct-22 23:29N 49°18' W 123°02'0 0.0
2017-Oct-22 22:59N 49°18' W 123°02'0 0.0
2017-Oct-22 22:29N 49°18' W 123°02'0 0.0
2017-Oct-22 21:59N 49°18' W 123°02'0 0.0
2017-Oct-22 21:29N 49°18' W 123°02'0 0.0
2017-Oct-22 20:59N 49°18' W 123°02'0 0.0
2017-Oct-22 20:29N 49°18' W 123°02'0 0.0
2017-Oct-22 19:59N 49°18' W 123°02'0 0.0
2017-Oct-22 19:29N 49°18' W 123°02'0 0.0
2017-Oct-22 18:59N 49°18' W 123°02'0 0.0
2017-Oct-22 18:29N 49°18' W 123°02'0 0.0
2017-Oct-22 17:59N 49°18' W 123°02'0 0.0
2017-Oct-22 17:29N 49°18' W 123°02'0 0.0
2017-Oct-22 16:59N 49°18' W 123°02'0 0.0
2017-Oct-22 16:26N 49°18' W 123°02'0 0.0
2017-Oct-22 15:59N 49°18' W 123°02'0 0.0
2017-Oct-22 15:29N 49°18' W 123°02'0 0.0
2017-Oct-22 14:59N 49°18' W 123°02'0 0.0
2017-Oct-22 14:29N 49°18' W 123°02'0 0.0
2017-Oct-22 13:59N 49°18' W 123°02'0 0.0
2017-Oct-22 13:29N 49°18' W 123°02'0 0.0
2017-Oct-22 12:59N 49°18' W 123°02'0 0.0
2017-Oct-22 12:29N 49°18' W 123°02'0 0.0
2017-Oct-22 11:59N 49°18' W 123°02'0 0.0
2017-Oct-22 11:29N 49°18' W 123°02'0 0.0
2017-Oct-22 10:59N 49°18' W 123°02'0 0.0
2017-Oct-22 10:29N 49°18' W 123°02'0 0.0
2017-Oct-22 09:56N 49°18' W 123°02'0 0.0
2017-Oct-22 09:29N 49°18' W 123°02'0 0.0
2017-Oct-22 08:59N 49°18' W 123°02'0 0.0
2017-Oct-22 08:29N 49°18' W 123°02'0 0.0
2017-Oct-22 07:59N 49°18' W 123°02'0 0.0
2017-Oct-22 07:29N 49°18' W 123°02'0 0.0
2017-Oct-22 06:56N 49°18' W 123°02'0 0.0
2017-Oct-22 06:29N 49°18' W 123°02'0 0.0
2017-Oct-22 05:59N 49°18' W 123°02'0 0.0
2017-Oct-22 05:29N 49°18' W 123°02'0 0.0
2017-Oct-22 04:59N 49°18' W 123°02'0 0.0
2017-Oct-22 04:29N 49°18' W 123°02'0 0.0
2017-Oct-22 03:59N 49°18' W 123°02'0 0.0
2017-Oct-22 03:29N 49°18' W 123°02'0 0.0
2017-Oct-22 02:59N 49°18' W 123°02'0 0.0
2017-Oct-22 02:29N 49°18' W 123°02'0 0.0
2017-Oct-22 01:59N 49°18' W 123°02'0 0.0
2017-Oct-22 01:29N 49°18' W 123°02'0 0.0
2017-Oct-22 00:59N 49°18' W 123°02'0 0.0
2017-Oct-22 00:29N 49°18' W 123°02'0 0.0
2017-Oct-21 23:59N 49°18' W 123°02'0 0.0
2017-Oct-21 23:26N 49°18' W 123°02'0 0.0
2017-Oct-21 22:59N 49°18' W 123°02'0 0.0
2017-Oct-21 22:29N 49°18' W 123°02'0 0.0
2017-Oct-21 21:59N 49°18' W 123°02'0 0.0
2017-Oct-21 21:29N 49°18' W 123°02'0 0.0
2017-Oct-21 20:59N 49°18' W 123°02'0 0.0
2017-Oct-21 20:29N 49°18' W 123°02'0 0.0
2017-Oct-21 19:59N 49°18' W 123°02'0 0.0
2017-Oct-21 19:26N 49°18' W 123°02'0 0.0
2017-Oct-21 18:59N 49°18' W 123°02'0 0.0
2017-Oct-21 18:29N 49°18' W 123°02'0 0.0
2017-Oct-21 17:59N 49°18' W 123°02'0 0.0
2017-Oct-21 17:29N 49°18' W 123°02'0 0.0
2017-Oct-21 16:59N 49°18' W 123°02'0 0.0
2017-Oct-21 16:29N 49°18' W 123°02'0 0.0
2017-Oct-21 15:59N 49°18' W 123°02'0 0.0
2017-Oct-21 15:29N 49°18' W 123°02'0 0.0
2017-Oct-21 14:59N 49°18' W 123°02'0 0.0
2017-Oct-21 14:29N 49°18' W 123°02'0 0.0
2017-Oct-21 13:29N 49°18' W 123°02'0 0.0
2017-Oct-21 12:59N 49°18' W 123°02'0 0.0
2017-Oct-21 12:26N 49°18' W 123°02'0 0.0
2017-Oct-21 11:59N 49°18' W 123°02'0 0.0
2017-Oct-21 11:29N 49°18' W 123°02'0 0.0
2017-Oct-21 10:59N 49°18' W 123°02'0 0.0
2017-Oct-21 10:29N 49°18' W 123°02'0 0.0
2017-Oct-21 09:59N 49°18' W 123°02'0 0.0
2017-Oct-21 09:29N 49°18' W 123°02'0 0.0
2017-Oct-21 08:59N 49°18' W 123°02'0 0.0
2017-Oct-21 08:26N 49°18' W 123°02'0 0.0
2017-Oct-21 07:59N 49°18' W 123°02'0 0.0
2017-Oct-21 07:26N 49°18' W 123°02'0 0.0
2017-Oct-21 06:59N 49°18' W 123°02'0 0.0
2017-Oct-21 06:29N 49°18' W 123°02'0 0.0
2017-Oct-21 05:59N 49°18' W 123°02'0 0.0
2017-Oct-21 05:29N 49°18' W 123°02'0 0.0
2017-Oct-21 04:56N 49°18' W 123°02'0 0.0
2017-Oct-21 04:29N 49°18' W 123°02'0 0.0
2017-Oct-21 03:59N 49°18' W 123°02'0 0.0
2017-Oct-21 03:29N 49°18' W 123°02'0 0.0
2017-Oct-21 02:59N 49°18' W 123°02'0 0.0
2017-Oct-21 02:29N 49°18' W 123°02'0 0.0
2017-Oct-21 01:59N 49°18' W 123°02'0 0.0
2017-Oct-21 01:29N 49°18' W 123°02'0 0.0
2017-Oct-21 00:59N 49°18' W 123°02'0 0.0
2017-Oct-21 00:29N 49°18' W 123°02'0 0.0
2017-Oct-20 23:59N 49°18' W 123°02'0 0.0
2017-Oct-20 23:29N 49°18' W 123°02'0 0.0
2017-Oct-20 22:59N 49°18' W 123°02'0 0.0
2017-Oct-20 22:29N 49°18' W 123°02'0 0.0
2017-Oct-20 21:59N 49°18' W 123°02'0 0.0
2017-Oct-20 21:29N 49°18' W 123°02'0 0.0
2017-Oct-20 20:59N 49°18' W 123°02'0 0.0
2017-Oct-20 20:26N 49°18' W 123°02'0 0.0
2017-Oct-20 19:56N 49°18' W 123°02'0 0.0
2017-Oct-20 19:29N 49°18' W 123°02'0 0.0
2017-Oct-20 18:59N 49°18' W 123°02'0 0.0
2017-Oct-20 18:29N 49°18' W 123°02'0 0.0
2017-Oct-20 17:59N 49°18' W 123°02'0 0.0
2017-Oct-20 17:29N 49°18' W 123°02'0 0.0
2017-Oct-20 16:56N 49°18' W 123°02'0 0.0
2017-Oct-20 16:29N 49°18' W 123°02'0 0.0
2017-Oct-20 15:59N 49°18' W 123°02'0 0.0
2017-Oct-20 15:29N 49°18' W 123°02'0 0.0
2017-Oct-20 14:59N 49°18' W 123°02'0 0.0
2017-Oct-20 14:29N 49°18' W 123°02'0 0.0
2017-Oct-20 13:26N 49°18' W 123°02'0 0.0
2017-Oct-20 12:59N 49°18' W 123°02'0 0.0
2017-Oct-20 12:29N 49°18' W 123°02'0 0.0
2017-Oct-20 11:56N 49°18' W 123°02'0 0.0
2017-Oct-20 11:29N 49°18' W 123°02'0 0.0
2017-Oct-20 10:59N 49°18' W 123°02'0 0.0
2017-Oct-20 10:29N 49°18' W 123°02'0 0.0
2017-Oct-20 09:59N 49°18' W 123°02'0 0.0
2017-Oct-20 09:29N 49°18' W 123°02'0 0.0
2017-Oct-20 08:59N 49°18' W 123°02'0 0.0
2017-Oct-20 08:29N 49°18' W 123°02'0 0.0
2017-Oct-20 07:59N 49°18' W 123°02'0 0.0
2017-Oct-20 07:29N 49°18' W 123°02'0 0.0
2017-Oct-20 06:59N 49°18' W 123°02'0 0.0
2017-Oct-20 06:29N 49°18' W 123°02'0 0.0
2017-Oct-20 05:59N 49°18' W 123°02'0 0.0
2017-Oct-20 05:29N 49°18' W 123°02'0 0.0
2017-Oct-20 04:59N 49°18' W 123°02'0 0.0
2017-Oct-20 04:29N 49°18' W 123°02'0 0.0
2017-Oct-20 03:56N 49°18' W 123°02'0 0.0
2017-Oct-20 03:29N 49°18' W 123°02'0 0.0
2017-Oct-20 02:59N 49°18' W 123°02'0 0.0
2017-Oct-20 02:29N 49°18' W 123°02'0 0.0
2017-Oct-20 01:59N 49°18' W 123°02'0 0.0
2017-Oct-20 01:29N 49°18' W 123°02'0 0.0
2017-Oct-20 00:59N 49°18' W 123°02'0 0.0
2017-Oct-20 00:26N 49°18' W 123°02'0 0.0
2017-Oct-19 23:59N 49°18' W 123°02'0 0.0
2017-Oct-19 23:29N 49°18' W 123°02'0 0.0
2017-Oct-19 22:56N 49°18' W 123°02'0 0.0
2017-Oct-19 22:29N 49°18' W 123°02'0 0.0
2017-Oct-19 21:59N 49°18' W 123°02'0 0.0
2017-Oct-19 21:29N 49°18' W 123°02'0 0.0
2017-Oct-19 20:59N 49°18' W 123°02'0 0.0
2017-Oct-19 20:29N 49°18' W 123°02'0 0.0
2017-Oct-19 19:59N 49°18' W 123°02'0 0.0
2017-Oct-19 19:29N 49°18' W 123°02'0 0.0
2017-Oct-19 18:59N 49°18' W 123°02'0 0.0
2017-Oct-19 18:29N 49°18' W 123°02'0 0.0
2017-Oct-19 17:56N 49°18' W 123°02'0 0.0
2017-Oct-19 17:23N 49°18' W 123°02'0 0.0
2017-Oct-19 16:59N 49°18' W 123°02'0 0.0
2017-Oct-19 16:26N 49°18' W 123°02'0 0.0
2017-Oct-19 15:59N 49°18' W 123°02'0 0.0
2017-Oct-19 15:29N 49°18' W 123°02'0 0.0
2017-Oct-19 14:59N 49°18' W 123°02'0 0.0
2017-Oct-19 14:29N 49°18' W 123°02'0 0.0
2017-Oct-19 13:56N 49°18' W 123°02'0 0.1
2017-Oct-19 13:29N 49°18' W 123°02'2 3.2
2017-Oct-19 13:00N 49°18' W 123°04'5 9.7
2017-Oct-19 12:30N 49°19' W 123°12'611.3
2017-Oct-19 12:00N 49°15' W 123°18'713.0
2017-Oct-19 11:30N 49°09' W 123°20'612.8
2017-Oct-19 11:00N 49°02' W 123°18'713.7
2017-Oct-19 10:30N 48°58' W 123°10'713.7
2017-Oct-19 10:00N 48°52' W 123°03'611.8
2017-Oct-19 09:30N 48°47' W 123°02'713.9
2017-Oct-19 09:00N 48°43' W 123°11'510.4
2017-Oct-19 08:30N 48°38' W 123°14'612.8
2017-Oct-19 08:00N 48°32' W 123°11'611.6
2017-Oct-19 07:30N 48°26' W 123°10'713.2
2017-Oct-19 07:00N 48°22' W 123°18'510.7
2017-Oct-19 06:30N 48°19' W 123°25'611.2
2017-Oct-19 06:00N 48°15' W 123°30'510.6
2017-Oct-19 05:30N 48°13' W 123°37'5 9.9
2017-Oct-19 04:57N 48°13' W 123°46'510.3
2017-Oct-19 04:25N 48°14' W 123°54'410.4
2017-Oct-19 04:00N 48°15' W 123°60'511.0
2017-Oct-19 03:30N 48°17' W 124°07'510.7
2017-Oct-19 03:00N 48°20' W 124°15'510.9
2017-Oct-19 02:31N 48°22' W 124°22'510.8
2017-Oct-19 02:00N 48°24' W 124°29'612.2
2017-Oct-19 01:30N 48°27' W 124°38'611.8
2017-Oct-19 01:00N 48°29' W 124°46'510.7
2017-Oct-19 00:30N 48°28' W 124°54'610.1
2017-Oct-18 23:55N 48°25' W 125°02'510.7
2017-Oct-18 23:26N 48°20' W 125°04'13311.7
2017-Oct-18 12:04N 46°08' W 125°21'111.7
2017-Oct-18 11:59N 46°07' W 125°21'611.4
2017-Oct-18 11:30N 46°02' W 125°21'811.1
2017-Oct-18 10:47N 45°54' W 125°21'1111.1
2017-Oct-18 09:48N 45°43' W 125°21'611.7
2017-Oct-18 09:16N 45°37' W 125°21'511.6
2017-Oct-18 08:48N 45°31' W 125°21'611.7
2017-Oct-18 08:18N 45°25' W 125°22'  

Dump ship's entire track history